createdAt,value
2022-07-29T00:00:17.968Z,3.27
2022-07-29T00:03:04.557Z,2.63
2022-07-29T00:05:53.131Z,3.10
2022-07-29T00:08:39.489Z,3.20
2022-07-29T00:11:26.339Z,3.30
2022-07-29T00:14:13.659Z,3.07
2022-07-29T00:17:00.751Z,3.10
2022-07-29T00:19:49.588Z,3.20
2022-07-29T00:22:40.819Z,3.47
2022-07-29T00:25:27.939Z,3.20
2022-07-29T00:28:15.884Z,3.20
2022-07-29T00:31:04.083Z,3.30
2022-07-29T00:33:50.896Z,3.47
2022-07-29T00:36:36.662Z,3.20
2022-07-29T00:39:24.760Z,3.30
2022-07-29T00:42:13.220Z,2.97
2022-07-29T00:45:00.073Z,2.93
2022-07-29T00:47:47.179Z,2.80
2022-07-29T00:50:41.704Z,3.20
2022-07-29T00:53:29.056Z,3.17
2022-07-29T00:56:17.126Z,3.20
2022-07-29T00:59:04.061Z,3.30
2022-07-29T01:01:50.730Z,2.93
2022-07-29T01:04:37.466Z,3.03
2022-07-29T01:07:24.373Z,3.27
2022-07-29T01:10:12.356Z,2.83
2022-07-29T01:13:02.859Z,2.77
2022-07-29T01:15:59.306Z,2.83
2022-07-29T01:18:49.051Z,3.17
2022-07-29T01:21:52.266Z,2.97
2022-07-29T01:25:04.527Z,3.03
2022-07-29T01:28:11.688Z,2.90
2022-07-29T01:31:02.622Z,3.10
2022-07-29T01:33:54.962Z,3.23
2022-07-29T01:36:47.017Z,2.93
2022-07-29T01:39:38.292Z,3.00
2022-07-29T01:42:32.001Z,2.80
2022-07-29T01:45:22.376Z,2.80
2022-07-29T01:48:15.484Z,2.80
2022-07-29T01:51:08.001Z,3.00
2022-07-29T01:54:01.884Z,3.20
2022-07-29T01:56:52.082Z,2.83
2022-07-29T01:59:40.454Z,3.10
2022-07-29T02:02:28.480Z,2.70
2022-07-29T02:05:19.765Z,3.03
2022-07-29T02:08:08.373Z,3.00
2022-07-29T02:10:57.195Z,2.90
2022-07-29T02:13:46.389Z,3.00
2022-07-29T02:16:35.605Z,2.93
2022-07-29T02:19:25.768Z,3.03
2022-07-29T02:22:14.943Z,2.90
2022-07-29T02:25:03.831Z,3.00
2022-07-29T02:27:52.329Z,2.83
2022-07-29T02:30:44.181Z,3.30
2022-07-29T02:33:32.886Z,2.70
2022-07-29T02:36:23.156Z,2.90
2022-07-29T02:39:12.981Z,3.13
2022-07-29T02:42:04.190Z,2.93
2022-07-29T02:44:50.884Z,3.07
2022-07-29T02:47:42.341Z,2.90
2022-07-29T02:50:34.755Z,3.07
2022-07-29T02:53:24.767Z,3.13
2022-07-29T02:56:16.828Z,2.90
2022-07-29T02:59:08.357Z,3.07
2022-07-29T03:01:57.702Z,3.17
2022-07-29T03:04:46.199Z,2.33
2022-07-29T03:07:34.810Z,2.63
2022-07-29T03:10:22.192Z,2.70
2022-07-29T03:13:11.510Z,2.70
2022-07-29T03:15:59.907Z,3.00
2022-07-29T03:18:46.507Z,3.10
2022-07-29T03:21:33.319Z,2.87
2022-07-29T03:24:31.250Z,3.10
2022-07-29T03:27:18.206Z,2.70
2022-07-29T03:30:08.260Z,3.23
2022-07-29T03:32:56.539Z,3.40
2022-07-29T03:35:45.323Z,3.10
2022-07-29T03:38:35.125Z,2.77
2022-07-29T03:41:24.345Z,3.33
2022-07-29T03:44:11.916Z,2.90
2022-07-29T03:47:03.137Z,3.10
2022-07-29T03:49:52.032Z,3.13
2022-07-29T03:52:38.787Z,3.07
2022-07-29T03:55:26.294Z,3.30
2022-07-29T03:58:14.659Z,3.07
2022-07-29T04:01:01.645Z,2.67
2022-07-29T04:03:49.911Z,3.60
2022-07-29T04:06:41.507Z,3.30
2022-07-29T04:09:28.062Z,3.47
2022-07-29T04:12:14.887Z,2.67
2022-07-29T04:15:01.532Z,2.70
2022-07-29T04:17:48.196Z,3.00
2022-07-29T04:20:37.651Z,2.53
2022-07-29T04:23:24.477Z,2.50
2022-07-29T04:26:11.943Z,3.10
2022-07-29T04:28:58.803Z,2.87
2022-07-29T04:31:46.359Z,2.63
2022-07-29T04:34:33.015Z,3.20
2022-07-29T04:37:21.357Z,3.00
2022-07-29T04:40:09.136Z,3.17
2022-07-29T04:42:55.590Z,2.53
2022-07-29T04:45:47.368Z,2.60
2022-07-29T04:48:34.315Z,2.60
2022-07-29T04:51:20.923Z,2.70
2022-07-29T04:54:09.044Z,2.90
2022-07-29T04:56:58.436Z,2.43
2022-07-29T04:59:52.797Z,2.83
2022-07-29T05:02:43.475Z,2.97
2022-07-29T05:05:30.377Z,2.70
2022-07-29T05:08:17.070Z,2.80
2022-07-29T05:11:12.213Z,2.53
2022-07-29T05:13:59.537Z,2.50
2022-07-29T05:16:46.556Z,2.50
2022-07-29T05:19:33.192Z,2.63
2022-07-29T05:22:20.321Z,2.90
2022-07-29T05:25:09.298Z,2.90
2022-07-29T05:27:58.039Z,2.90
2022-07-29T05:30:45.534Z,2.63
2022-07-29T05:33:36.134Z,2.40
2022-07-29T05:36:23.639Z,2.87
2022-07-29T05:39:10.467Z,3.07
2022-07-29T05:41:57.123Z,2.40
2022-07-29T05:44:45.354Z,3.37
2022-07-29T05:47:32.241Z,3.00
2022-07-29T05:50:20.663Z,3.00
2022-07-29T05:53:19.104Z,2.73
2022-07-29T05:56:09.361Z,2.50
2022-07-29T05:58:56.918Z,2.83
2022-07-29T06:01:45.454Z,2.90
2022-07-29T06:04:32.596Z,2.30
2022-07-29T06:07:19.359Z,2.40
2022-07-29T06:10:07.092Z,2.67
2022-07-29T06:12:53.813Z,3.00
2022-07-29T06:15:40.852Z,2.47
2022-07-29T06:18:29.922Z,2.50
2022-07-29T06:21:17.003Z,2.97
2022-07-29T06:24:03.836Z,3.20
2022-07-29T06:26:50.620Z,2.40
2022-07-29T06:29:37.237Z,2.73
2022-07-29T06:32:27.406Z,2.60
2022-07-29T06:38:30.917Z,2.70
2022-07-29T06:41:21.168Z,2.30
2022-07-29T06:44:07.993Z,2.87
2022-07-29T06:46:56.408Z,2.40
2022-07-29T06:49:43.446Z,2.53
2022-07-29T06:52:31.138Z,2.83
2022-07-29T06:55:24.830Z,2.60
2022-07-29T06:58:12.980Z,2.90
2022-07-29T07:01:03.740Z,2.50
2022-07-29T07:03:50.666Z,2.90
2022-07-29T07:06:38.600Z,2.80
2022-07-29T07:09:40.078Z,2.73
2022-07-29T07:12:34.619Z,2.73
2022-07-29T07:15:23.078Z,2.40
2022-07-29T07:18:25.945Z,2.57
2022-07-29T07:21:12.726Z,3.47
2022-07-29T07:24:07.238Z,2.80
2022-07-29T07:26:55.356Z,2.70
2022-07-29T07:29:44.340Z,2.60
2022-07-29T07:32:31.260Z,2.30
2022-07-29T07:35:17.688Z,2.60
2022-07-29T07:38:04.493Z,2.50
2022-07-29T07:40:51.100Z,2.53
2022-07-29T07:43:39.229Z,2.50
2022-07-29T07:46:25.922Z,2.50
2022-07-29T07:49:12.836Z,2.60
2022-07-29T07:51:59.646Z,2.47
2022-07-29T07:54:46.210Z,2.47
2022-07-29T07:57:33.086Z,2.33
2022-07-29T08:00:23.066Z,2.33
2022-07-29T08:03:16.808Z,2.50
2022-07-29T08:06:04.119Z,2.70
2022-07-29T08:08:51.902Z,2.57
2022-07-29T08:11:39.016Z,2.23
2022-07-29T08:14:38.615Z,2.40
2022-07-29T08:17:27.676Z,2.40
2022-07-29T08:20:14.402Z,2.10
2022-07-29T08:23:01.683Z,2.20
2022-07-29T08:25:50.341Z,2.23
2022-07-29T08:28:36.951Z,2.13
2022-07-29T08:31:23.786Z,1.90
2022-07-29T08:34:11.888Z,2.10
2022-07-29T08:36:58.971Z,2.30
2022-07-29T08:39:45.457Z,1.80
2022-07-29T08:42:33.294Z,2.00
2022-07-29T08:45:20.048Z,2.30
2022-07-29T08:48:06.786Z,1.90
2022-07-29T08:50:59.271Z,1.73
2022-07-29T08:53:49.334Z,2.00
2022-07-29T08:56:36.790Z,2.60
2022-07-29T08:59:27.830Z,1.80
2022-07-29T09:02:33.228Z,2.23
2022-07-29T09:05:25.230Z,2.33
2022-07-29T09:08:14.588Z,1.97
2022-07-29T09:11:05.553Z,1.80
2022-07-29T09:13:53.289Z,1.70
2022-07-29T09:16:53.182Z,1.83
2022-07-29T09:19:45.517Z,1.93
2022-07-29T09:22:36.733Z,1.93
2022-07-29T09:25:38.425Z,1.90
2022-07-29T09:28:25.801Z,1.80
2022-07-29T09:31:12.665Z,1.50
2022-07-29T09:34:01.264Z,2.07
2022-07-29T09:36:49.898Z,1.73
2022-07-29T09:39:38.990Z,1.97
2022-07-29T09:42:34.901Z,1.60
2022-07-29T09:45:32.465Z,1.90
2022-07-29T09:48:21.280Z,1.80
2022-07-29T09:51:07.981Z,1.93
2022-07-29T09:53:55.326Z,1.70
2022-07-29T09:56:43.336Z,1.47
2022-07-29T09:59:31.118Z,1.60
2022-07-29T10:02:23.541Z,1.47
2022-07-29T10:05:19.834Z,4.53
2022-07-29T10:08:08.618Z,1.50
2022-07-29T10:11:11.538Z,1.57
2022-07-29T10:13:59.264Z,1.60
2022-07-29T10:16:47.828Z,1.60
2022-07-29T10:19:35.823Z,1.30
2022-07-29T10:22:51.459Z,1.60
2022-07-29T10:25:29.781Z,1.57
2022-07-29T10:28:16.999Z,1.87
2022-07-29T10:31:09.343Z,1.37
2022-07-29T10:34:07.462Z,1.60
2022-07-29T10:37:09.696Z,1.60
2022-07-29T10:40:27.695Z,1.70
2022-07-29T10:43:21.691Z,1.83
2022-07-29T10:46:09.253Z,2.27
2022-07-29T10:49:15.467Z,1.20
2022-07-29T10:52:06.353Z,1.70
2022-07-29T10:54:53.751Z,1.47
2022-07-29T11:00:50.589Z,1.43
2022-07-29T11:03:52.257Z,1.50
2022-07-29T11:07:13.302Z,1.40
2022-07-29T11:10:30.977Z,1.10
2022-07-29T11:13:49.386Z,1.27
2022-07-29T11:17:01.977Z,1.20
2022-07-29T11:19:52.134Z,1.47
2022-07-29T11:22:43.055Z,1.43
2022-07-29T11:25:50.417Z,1.50
2022-07-29T11:28:49.996Z,2.27
2022-07-29T11:31:42.469Z,1.20
2022-07-29T11:34:31.446Z,1.27
2022-07-29T11:37:27.619Z,1.50
2022-07-29T11:40:25.160Z,2.00
2022-07-29T11:43:11.867Z,1.87
2022-07-29T11:46:01.534Z,1.50
2022-07-29T11:48:48.167Z,1.80
2022-07-29T11:51:48.177Z,1.70
2022-07-29T11:54:38.739Z,1.67
2022-07-29T11:58:04.041Z,1.60
2022-07-29T12:00:50.880Z,2.10
2022-07-29T12:03:38.165Z,1.90
2022-07-29T12:06:25.939Z,1.80
2022-07-29T12:09:14.771Z,1.90
2022-07-29T12:12:05.201Z,2.00
2022-07-29T12:14:53.776Z,1.70
2022-07-29T12:17:41.831Z,1.67
2022-07-29T12:20:30.392Z,2.33
2022-07-29T12:23:17.466Z,2.23
2022-07-29T12:26:11.033Z,1.80
2022-07-29T12:29:15.533Z,3.07
2022-07-29T12:32:14.994Z,2.03
2022-07-29T12:35:08.876Z,2.30
2022-07-29T12:37:55.890Z,1.97
2022-07-29T12:40:47.026Z,1.97
2022-07-29T12:43:33.807Z,1.97
2022-07-29T12:46:20.376Z,2.07
2022-07-29T12:49:08.680Z,2.30
2022-07-29T12:51:56.716Z,2.10
2022-07-29T12:54:49.408Z,1.93
2022-07-29T12:57:47.608Z,3.03
2022-07-29T13:00:34.638Z,2.20
2022-07-29T13:03:21.210Z,1.90
2022-07-29T13:06:09.592Z,2.83
2022-07-29T13:09:04.906Z,2.30
2022-07-29T13:11:54.674Z,2.70
2022-07-29T13:14:43.343Z,2.00
2022-07-29T13:17:32.617Z,2.13
2022-07-29T13:20:20.114Z,2.27
2022-07-29T13:23:07.906Z,2.13
2022-07-29T13:25:54.659Z,2.50
2022-07-29T13:28:44.149Z,2.33
2022-07-29T13:31:30.767Z,2.20
2022-07-29T13:34:18.137Z,2.50
2022-07-29T13:37:04.981Z,3.33
2022-07-29T13:39:53.521Z,2.37
2022-07-29T13:42:40.800Z,2.20
2022-07-29T13:45:29.218Z,2.17
2022-07-29T13:48:16.016Z,2.40
2022-07-29T13:51:03.192Z,2.20
2022-07-29T13:53:49.493Z,2.00
2022-07-29T13:56:37.599Z,1.90
2022-07-29T13:59:24.353Z,2.27
2022-07-29T14:02:13.320Z,2.10
2022-07-29T14:05:07.659Z,2.30
2022-07-29T14:07:55.198Z,2.23
2022-07-29T14:10:42.129Z,2.20
2022-07-29T14:13:30.430Z,2.07
2022-07-29T14:16:18.720Z,2.07
2022-07-29T14:19:05.736Z,2.07
2022-07-29T14:21:52.425Z,2.13
2022-07-29T14:24:39.150Z,2.10
2022-07-29T14:27:38.074Z,1.93
2022-07-29T14:30:26.498Z,2.50
2022-07-29T14:33:13.333Z,2.77
2022-07-29T14:36:01.186Z,2.13
2022-07-29T14:38:48.433Z,2.10
2022-07-29T14:41:34.930Z,2.97
2022-07-29T14:44:21.506Z,2.20
2022-07-29T14:47:10.019Z,2.23
2022-07-29T14:49:56.430Z,2.20
2022-07-29T14:52:43.175Z,2.10
2022-07-29T14:55:30.152Z,1.90
2022-07-29T14:58:16.840Z,2.20
2022-07-29T15:01:03.611Z,2.10
2022-07-29T15:03:51.775Z,2.30
2022-07-29T15:06:39.019Z,2.00
2022-07-29T15:09:25.806Z,2.33
2022-07-29T15:12:12.685Z,1.90
2022-07-29T15:14:59.433Z,2.40
2022-07-29T15:17:46.639Z,2.13
2022-07-29T15:20:34.794Z,2.90
2022-07-29T15:23:21.631Z,2.23
2022-07-29T15:26:08.531Z,2.30
2022-07-29T15:28:56.632Z,2.10
2022-07-29T15:31:43.359Z,2.30
2022-07-29T15:34:30.255Z,2.00
2022-07-29T15:37:18.396Z,2.00
2022-07-29T15:40:06.212Z,1.90
2022-07-29T15:42:52.545Z,2.40
2022-07-29T15:45:40.561Z,2.20
2022-07-29T15:48:27.488Z,2.10
2022-07-29T15:51:14.321Z,2.27
2022-07-29T15:54:03.004Z,2.13
2022-07-29T15:56:49.269Z,2.10
2022-07-29T15:59:36.011Z,2.10
2022-07-29T16:02:22.921Z,2.30
2022-07-29T16:05:09.890Z,1.90
2022-07-29T16:07:57.263Z,1.73
2022-07-29T16:10:45.448Z,1.90
2022-07-29T16:13:32.212Z,1.70
2022-07-29T16:16:19.378Z,2.00
2022-07-29T16:19:31.269Z,1.87
2022-07-29T16:22:18.058Z,1.97
2022-07-29T16:25:04.985Z,2.53
2022-07-29T16:27:55.985Z,2.30
2022-07-29T16:30:45.975Z,1.90
2022-07-29T16:33:54.342Z,1.73
2022-07-29T16:36:39.601Z,1.87
2022-07-29T16:39:26.238Z,1.90
2022-07-29T16:42:30.750Z,2.07
2022-07-29T16:45:21.545Z,1.97
2022-07-29T16:48:08.341Z,1.90
2022-07-29T16:50:56.232Z,1.57
2022-07-29T16:53:43.173Z,1.80
2022-07-29T16:56:29.927Z,1.87
2022-07-29T16:59:16.629Z,1.77
2022-07-29T17:02:05.123Z,2.00
2022-07-29T17:04:52.003Z,1.80
2022-07-29T17:07:38.549Z,2.50
2022-07-29T17:10:26.606Z,2.30
2022-07-29T17:13:14.529Z,3.10
2022-07-29T17:16:01.431Z,2.30
2022-07-29T17:18:49.343Z,2.07
2022-07-29T17:21:36.235Z,2.97
2022-07-29T17:24:35.040Z,2.80
2022-07-29T17:27:21.824Z,2.30
2022-07-29T17:30:11.293Z,2.17
2022-07-29T17:32:58.073Z,1.97
2022-07-29T17:36:03.394Z,2.70
2022-07-29T17:38:50.436Z,3.20
2022-07-29T17:41:36.982Z,2.00
2022-07-29T17:44:26.041Z,1.93
2022-07-29T17:47:15.946Z,2.17
2022-07-29T17:50:03.656Z,1.70
2022-07-29T17:52:51.589Z,1.70
2022-07-29T17:55:39.551Z,1.60
2022-07-29T17:58:26.382Z,1.70
2022-07-29T18:01:12.870Z,1.80
2022-07-29T18:04:00.719Z,1.80
2022-07-29T18:06:47.476Z,1.80
2022-07-29T18:09:35.540Z,1.60
2022-07-29T18:12:22.465Z,1.60
2022-07-29T18:15:09.642Z,1.90
2022-07-29T18:17:57.980Z,2.10
2022-07-29T18:20:45.666Z,2.30
2022-07-29T18:23:32.608Z,1.70
2022-07-29T18:26:20.742Z,2.77
2022-07-29T18:29:07.652Z,1.93
2022-07-29T18:31:58.938Z,1.90
2022-07-29T18:34:45.714Z,2.00
2022-07-29T18:38:00.870Z,1.70
2022-07-29T18:40:42.509Z,1.80
2022-07-29T18:43:33.473Z,1.87
2022-07-29T18:46:20.473Z,2.03
2022-07-29T18:49:08.296Z,1.80
2022-07-29T18:51:56.996Z,1.93
2022-07-29T18:54:43.639Z,1.70
2022-07-29T18:57:54.920Z,2.00
2022-07-29T19:00:38.251Z,1.90
2022-07-29T19:03:24.955Z,2.07
2022-07-29T19:06:11.643Z,2.00
2022-07-29T19:08:58.726Z,2.47
2022-07-29T19:11:45.588Z,1.53
2022-07-29T19:14:32.325Z,1.80
2022-07-29T19:17:24.684Z,2.13
2022-07-29T19:20:12.223Z,1.80
2022-07-29T19:22:58.765Z,2.10
2022-07-29T19:25:53.201Z,1.87
2022-07-29T19:28:42.149Z,2.07
2022-07-29T19:31:37.216Z,2.27
2022-07-29T19:34:25.349Z,1.97
2022-07-29T19:37:12.628Z,2.10
2022-07-29T19:40:01.873Z,5.33
2022-07-29T19:42:51.659Z,1.87
2022-07-29T19:45:38.314Z,2.37
2022-07-29T19:48:25.241Z,2.40
2022-07-29T19:51:13.299Z,2.00
2022-07-29T19:54:01.829Z,2.03
2022-07-29T19:56:48.451Z,2.30
2022-07-29T19:59:36.341Z,2.60
2022-07-29T20:02:23.801Z,2.23
2022-07-29T20:05:10.974Z,2.50
2022-07-29T20:07:59.364Z,2.53
2022-07-29T20:10:46.093Z,2.03
2022-07-29T20:13:35.347Z,1.90
2022-07-29T20:16:22.791Z,2.27
2022-07-29T20:19:12.074Z,2.07
2022-07-29T20:21:59.077Z,2.20
2022-07-29T20:24:47.676Z,2.33
2022-07-29T20:27:36.924Z,2.40
2022-07-29T20:30:24.295Z,3.77
2022-07-29T20:33:11.737Z,2.30
2022-07-29T20:35:58.569Z,2.23
2022-07-29T20:38:45.240Z,2.07
2022-07-29T20:41:34.008Z,2.17
2022-07-29T20:44:20.976Z,3.30
2022-07-29T20:47:07.740Z,2.53
2022-07-29T20:49:54.712Z,2.60
2022-07-29T20:52:43.400Z,2.40
2022-07-29T20:55:33.110Z,2.13
2022-07-29T20:58:25.983Z,2.20
2022-07-29T21:01:13.674Z,2.20
2022-07-29T21:04:01.380Z,2.53
2022-07-29T21:06:52.039Z,2.50
2022-07-29T21:09:39.529Z,2.53
2022-07-29T21:12:26.490Z,2.47
2022-07-29T21:15:15.973Z,2.30
2022-07-29T21:18:06.093Z,2.70
2022-07-29T21:20:55.822Z,2.60
2022-07-29T21:23:50.022Z,2.10
2022-07-29T21:26:38.712Z,2.03
2022-07-29T21:29:28.814Z,2.57
2022-07-29T21:32:27.402Z,2.10
2022-07-29T21:35:31.375Z,2.37
2022-07-29T21:38:25.625Z,2.33
2022-07-29T21:41:15.493Z,2.30
2022-07-29T21:44:02.801Z,2.20
2022-07-29T21:46:50.823Z,2.57
2022-07-29T21:49:39.185Z,2.20
2022-07-29T21:52:25.847Z,2.17
2022-07-29T21:55:13.906Z,2.30
2022-07-29T21:58:00.716Z,2.50
2022-07-29T22:00:47.450Z,2.33
2022-07-29T22:03:34.291Z,3.50
2022-07-29T22:06:22.358Z,2.60
2022-07-29T22:09:09.049Z,2.70
2022-07-29T22:11:56.136Z,2.00
2022-07-29T22:14:42.831Z,2.60
2022-07-29T22:17:29.601Z,2.30
2022-07-29T22:20:16.593Z,2.50
2022-07-29T22:23:04.531Z,2.03
2022-07-29T22:25:51.407Z,2.47
2022-07-29T22:28:37.963Z,2.20
2022-07-29T22:31:24.987Z,2.30
2022-07-29T22:34:13.443Z,2.40
2022-07-29T22:37:00.495Z,2.63
2022-07-29T22:39:48.825Z,2.63
2022-07-29T22:42:35.898Z,2.60
2022-07-29T22:45:27.640Z,2.33
2022-07-29T22:48:14.343Z,2.53
2022-07-29T22:51:01.438Z,2.37
2022-07-29T22:53:48.100Z,2.43
2022-07-29T22:56:36.834Z,2.50
2022-07-29T22:59:23.389Z,2.80
2022-07-29T23:02:10.042Z,2.33
2022-07-29T23:04:56.853Z,2.30
2022-07-29T23:07:43.587Z,2.63
2022-07-29T23:10:30.399Z,2.20
2022-07-29T23:13:18.404Z,2.10
2022-07-29T23:16:05.679Z,2.57
2022-07-29T23:18:53.156Z,2.37
2022-07-29T23:21:39.723Z,2.20
2022-07-29T23:24:26.455Z,2.80
2022-07-29T23:27:13.210Z,2.80
2022-07-29T23:30:01.331Z,2.60
2022-07-29T23:32:48.025Z,2.73
2022-07-29T23:35:34.830Z,2.73
2022-07-29T23:38:21.668Z,2.37
2022-07-29T23:41:09.848Z,2.33
2022-07-29T23:43:56.593Z,2.57
2022-07-29T23:46:44.839Z,2.50
2022-07-29T23:49:31.475Z,2.80
2022-07-29T23:52:18.925Z,2.60
2022-07-29T23:55:36.454Z,2.53
2022-07-29T23:58:13.013Z,2.60
